Terminal Aerodrome Forecast
Issued by NWS

Current Version | Previous Version | Graphics & Text | Print | Product List | Glossary Off
Versions: 1 2 3 4 5 6 7 8 9 10 11 12 13 14 15 16 17 18

000
FTUS41 KILN 222300
TAFLUK
TAF
KLUK 222320Z 2300/2324 27010KT P6SM FEW070 SCT250
     FM230200 VRB01KT P6SM SCT250
      TEMPO 2309/2311 4SM BR
     FM231400 15004KT P6SM SCT150=

USA.gov is the U.S. government's official web portal to all federal, state and local government web resources and services.